createdAt,value
2023-10-09T00:00:27.184Z,98244.97
2023-10-09T00:02:53.621Z,98243.59
2023-10-09T00:05:20.129Z,98240.00
2023-10-09T00:07:46.470Z,98236.81
2023-10-09T00:10:12.875Z,98233.28
2023-10-09T00:12:39.243Z,98227.69
2023-10-09T00:15:06.006Z,98226.31
2023-10-09T00:17:32.590Z,98217.34
2023-10-09T00:19:59.137Z,98212.34
2023-10-09T00:22:25.508Z,98204.34
2023-10-09T00:24:52.857Z,98205.56
2023-10-09T00:27:19.290Z,98205.38
2023-10-09T00:29:46.160Z,98195.16
2023-10-09T00:32:13.721Z,98185.94
2023-10-09T00:34:41.257Z,98179.97
2023-10-09T00:37:08.834Z,98169.97
2023-10-09T00:39:35.231Z,98172.75
2023-10-09T00:42:01.630Z,98163.56
2023-10-09T00:44:28.507Z,98161.53
2023-10-09T00:46:54.895Z,98163.72
2023-10-09T00:49:21.274Z,98153.72
2023-10-09T00:51:52.626Z,98151.69
2023-10-09T00:54:19.099Z,98148.06
2023-10-09T00:56:46.185Z,98147.84
2023-10-09T00:59:17.182Z,98143.25
2023-10-09T01:01:43.992Z,98140.66
2023-10-09T01:04:10.586Z,98148.00
2023-10-09T01:06:42.696Z,98139.00
2023-10-09T01:09:09.077Z,98132.03
2023-10-09T01:11:35.494Z,98132.19
2023-10-09T01:14:01.881Z,98136.00
2023-10-09T01:16:28.335Z,98117.78
2023-10-09T01:18:56.175Z,98117.97
2023-10-09T01:21:22.583Z,98110.94
2023-10-09T01:23:48.962Z,98111.34
2023-10-09T01:26:15.313Z,98112.72
2023-10-09T01:28:41.667Z,98111.88
2023-10-09T01:31:08.054Z,98118.06
2023-10-09T01:33:34.476Z,98103.84
2023-10-09T01:36:00.923Z,98103.59
2023-10-09T01:38:27.299Z,98098.00
2023-10-09T01:40:53.639Z,98094.38
2023-10-09T01:43:20.010Z,98083.19
2023-10-09T01:45:46.386Z,98088.50
2023-10-09T01:48:13.769Z,98077.50
2023-10-09T01:50:40.225Z,98084.06
2023-10-09T01:53:06.582Z,98089.03
2023-10-09T01:55:33.245Z,98093.00
2023-10-09T01:57:59.906Z,98102.16
2023-10-09T02:00:26.288Z,98094.53
2023-10-09T02:02:52.709Z,98095.28
2023-10-09T02:05:19.191Z,98090.69
2023-10-09T02:07:45.923Z,98088.66
2023-10-09T02:10:15.241Z,98085.16
2023-10-09T02:12:41.588Z,98074.63
2023-10-09T02:15:08.534Z,98073.25
2023-10-09T02:17:34.936Z,98064.94
2023-10-09T02:20:01.326Z,98062.56
2023-10-09T02:22:27.674Z,98056.22
2023-10-09T02:24:54.041Z,98045.03
2023-10-09T02:27:20.790Z,98034.50
2023-10-09T02:29:47.459Z,98030.28
2023-10-09T02:32:14.577Z,98019.06
2023-10-09T02:34:41.521Z,98017.72
2023-10-09T02:37:07.875Z,98014.09
2023-10-09T02:39:34.269Z,98012.53
2023-10-09T02:42:00.677Z,98013.88
2023-10-09T02:44:27.445Z,98006.31
2023-10-09T02:46:53.903Z,97988.16
2023-10-09T02:49:20.274Z,97986.38
2023-10-09T02:51:46.621Z,97981.78
2023-10-09T02:54:13.240Z,97978.78
2023-10-09T02:56:39.769Z,97983.78
2023-10-09T02:59:06.425Z,97974.81
2023-10-09T03:01:37.575Z,97982.16
2023-10-09T03:04:05.578Z,97970.91
2023-10-09T03:06:33.506Z,97968.31
2023-10-09T03:08:59.982Z,97963.53
2023-10-09T03:11:26.519Z,97968.50
2023-10-09T03:13:53.536Z,97971.31
2023-10-09T03:16:22.308Z,97964.03
2023-10-09T03:18:53.873Z,97955.44
2023-10-09T03:21:20.972Z,97954.50
2023-10-09T03:23:48.972Z,97953.13
2023-10-09T03:28:48.214Z,97953.13
2023-10-09T03:31:14.958Z,97961.50
2023-10-09T03:33:42.192Z,97962.47
2023-10-09T03:36:08.758Z,97965.06
2023-10-09T03:38:35.127Z,97971.28
2023-10-09T03:41:05.324Z,97967.47
2023-10-09T03:43:31.687Z,97960.31
2023-10-09T03:45:58.042Z,97964.88
2023-10-09T03:48:24.428Z,97948.75
2023-10-09T03:50:50.863Z,97951.19
2023-10-09T03:53:17.250Z,97944.22
2023-10-09T03:55:43.592Z,97950.88
2023-10-09T03:58:10.194Z,97957.25
2023-10-09T04:00:36.601Z,97956.28
2023-10-09T04:03:03.264Z,97960.09
2023-10-09T04:05:29.814Z,97960.28
2023-10-09T04:07:56.459Z,97947.91
2023-10-09T04:10:22.921Z,97949.91
2023-10-09T04:12:49.259Z,97945.53
2023-10-09T04:15:15.614Z,97950.72
2023-10-09T04:17:42.030Z,97949.75
2023-10-09T04:20:08.870Z,97939.16
2023-10-09T04:22:35.533Z,97927.78
2023-10-09T04:25:01.915Z,97930.19
2023-10-09T04:27:28.277Z,97920.44
2023-10-09T04:29:54.691Z,97920.00
2023-10-09T04:32:21.337Z,97932.19
2023-10-09T04:34:47.702Z,97923.78
2023-10-09T04:37:14.033Z,97921.63
2023-10-09T04:39:40.573Z,97914.63
2023-10-09T04:42:07.014Z,97911.63
2023-10-09T04:44:33.415Z,97920.03
2023-10-09T04:46:59.790Z,97926.66
2023-10-09T04:49:26.158Z,97927.44
2023-10-09T04:51:52.518Z,97912.84
2023-10-09T04:54:18.933Z,97903.47
2023-10-09T04:56:45.300Z,97894.25
2023-10-09T04:59:12.002Z,97882.69
2023-10-09T05:01:38.468Z,97892.06
2023-10-09T05:04:05.592Z,97886.88
2023-10-09T05:06:32.160Z,97888.06
2023-10-09T05:08:58.622Z,97870.69
2023-10-09T05:11:24.999Z,97851.72
2023-10-09T05:13:51.497Z,97860.50
2023-10-09T05:16:20.067Z,97851.31
2023-10-09T05:18:47.905Z,97848.13
2023-10-09T05:21:14.411Z,97860.09
2023-10-09T05:23:41.238Z,97860.69
2023-10-09T05:26:07.620Z,97871.28
2023-10-09T05:28:33.983Z,97874.06
2023-10-09T05:31:00.502Z,97886.06
2023-10-09T05:33:26.857Z,97874.88
2023-10-09T05:35:53.250Z,97878.03
2023-10-09T05:38:19.629Z,97882.84
2023-10-09T05:40:46.766Z,97890.84
2023-10-09T05:43:13.297Z,97900.03
2023-10-09T05:45:39.748Z,97897.78
2023-10-09T05:48:06.536Z,97902.81
2023-10-09T05:50:33.555Z,97905.78
2023-10-09T05:53:00.149Z,97903.38
2023-10-09T05:55:27.137Z,97891.78
2023-10-09T05:57:57.396Z,97899.94
2023-10-09T06:00:24.339Z,97902.34
2023-10-09T06:03:01.089Z,97895.94
2023-10-09T06:05:28.378Z,97907.75
2023-10-09T06:07:54.780Z,97901.53
2023-10-09T06:10:21.139Z,97902.75
2023-10-09T06:12:49.892Z,97906.13
2023-10-09T06:15:18.220Z,97911.31
2023-10-09T06:17:44.866Z,97910.69
2023-10-09T06:20:11.697Z,97903.88
2023-10-09T06:22:38.076Z,97904.69
2023-10-09T06:25:04.780Z,97906.06
2023-10-09T06:27:31.542Z,97904.88
2023-10-09T06:29:59.540Z,97905.06
2023-10-09T06:32:26.021Z,97907.91
2023-10-09T06:34:54.525Z,97916.47
2023-10-09T06:37:21.270Z,97912.25
2023-10-09T06:39:47.645Z,97908.63
2023-10-09T06:42:14.022Z,97915.03
2023-10-09T06:44:40.401Z,97926.00
2023-10-09T06:47:06.786Z,97925.78
2023-10-09T06:49:33.126Z,97945.06
2023-10-09T06:51:59.549Z,97936.63
2023-10-09T06:54:25.983Z,97933.59
2023-10-09T06:56:52.412Z,97926.75
2023-10-09T06:59:18.766Z,97923.34
2023-10-09T07:01:45.263Z,97942.13
2023-10-09T07:04:13.256Z,97946.31
2023-10-09T07:06:39.841Z,97941.81
2023-10-09T07:09:06.336Z,97944.38
2023-10-09T07:11:37.379Z,97955.56
2023-10-09T07:14:03.774Z,97949.94
2023-10-09T07:16:30.243Z,97952.69
2023-10-09T07:18:57.356Z,97957.53
2023-10-09T07:21:23.738Z,97966.00
2023-10-09T07:23:50.192Z,97958.97
2023-10-09T07:26:16.588Z,97961.59
2023-10-09T07:28:42.965Z,97958.91
2023-10-09T07:31:09.723Z,97959.16
2023-10-09T07:33:36.148Z,97955.69
2023-10-09T07:36:02.902Z,97963.94
2023-10-09T07:38:29.342Z,97972.34
2023-10-09T07:40:56.917Z,97975.91
2023-10-09T07:43:23.885Z,97973.47
2023-10-09T07:45:50.296Z,97973.88
2023-10-09T07:48:16.720Z,97973.06
2023-10-09T07:50:43.090Z,97977.25
2023-10-09T07:53:09.511Z,97984.78
2023-10-09T07:55:40.346Z,97991.72
2023-10-09T07:58:06.733Z,98003.28
2023-10-09T08:00:33.192Z,98003.59
2023-10-09T08:02:59.799Z,98003.16
2023-10-09T08:05:26.159Z,97994.53
2023-10-09T08:08:04.856Z,97988.53
2023-10-09T08:10:40.387Z,97989.00
2023-10-09T08:13:06.766Z,97998.47
2023-10-09T08:15:33.166Z,97985.22
2023-10-09T08:17:59.573Z,97995.31
2023-10-09T08:20:27.539Z,97993.06
2023-10-09T08:22:54.397Z,97990.25
2023-10-09T08:25:20.782Z,97979.66
2023-10-09T08:27:47.206Z,97981.09
2023-10-09T08:30:13.770Z,97986.69
2023-10-09T08:35:10.560Z,97988.69
2023-10-09T08:37:37.195Z,97991.66
2023-10-09T08:40:03.868Z,97993.38
2023-10-09T08:42:30.397Z,98004.72
2023-10-09T08:44:58.184Z,98001.59
2023-10-09T08:47:24.572Z,97997.31
2023-10-09T08:49:51.218Z,97997.69
2023-10-09T08:52:17.655Z,98014.84
2023-10-09T08:54:44.881Z,98016.38
2023-10-09T08:57:11.316Z,98012.59
2023-10-09T08:59:43.478Z,98016.66
2023-10-09T09:02:10.784Z,98011.00
2023-10-09T09:04:38.395Z,98018.41
2023-10-09T09:07:05.860Z,98021.75
2023-10-09T09:09:32.745Z,98033.16
2023-10-09T09:11:59.186Z,98021.13
2023-10-09T09:14:37.094Z,98021.06
2023-10-09T09:17:04.079Z,98019.78
2023-10-09T09:19:33.610Z,98019.41
2023-10-09T09:22:00.188Z,98022.94
2023-10-09T09:24:26.942Z,98022.28
2023-10-09T09:27:04.077Z,98027.06
2023-10-09T09:29:36.180Z,98026.09
2023-10-09T09:32:02.638Z,98022.06
2023-10-09T09:34:29.052Z,98026.53
2023-10-09T09:36:57.173Z,98034.81
2023-10-09T09:39:35.522Z,98033.22
2023-10-09T09:42:06.716Z,98028.00
2023-10-09T09:44:33.681Z,98027.34
2023-10-09T09:47:01.356Z,98033.16
2023-10-09T09:49:31.343Z,98026.78
2023-10-09T09:51:58.138Z,98030.47
2023-10-09T09:54:27.677Z,98036.97
2023-10-09T09:56:55.365Z,98040.88
2023-10-09T09:59:27.184Z,98029.81
2023-10-09T10:01:57.541Z,98019.25
2023-10-09T10:04:29.246Z,98009.34
2023-10-09T10:06:56.665Z,98018.22
2023-10-09T10:09:42.116Z,98011.03
2023-10-09T10:12:12.762Z,98014.88
2023-10-09T10:14:51.195Z,98005.09
2023-10-09T10:17:18.009Z,97996.63
2023-10-09T10:20:02.531Z,98005.00
2023-10-09T10:22:30.682Z,98006.63
2023-10-09T10:24:57.849Z,98006.22
2023-10-09T10:27:27.600Z,98007.09
2023-10-09T10:30:12.520Z,98000.63
2023-10-09T10:32:58.594Z,97997.28
2023-10-09T10:35:25.232Z,97988.97
2023-10-09T10:37:51.867Z,97994.13
2023-10-09T10:40:25.101Z,97988.06
2023-10-09T10:42:51.463Z,97990.38
2023-10-09T10:45:19.411Z,97995.38
2023-10-09T10:47:45.926Z,97998.44
2023-10-09T10:50:13.434Z,97983.97
2023-10-09T10:52:39.878Z,97977.03
2023-10-09T10:55:11.158Z,97975.00
2023-10-09T10:57:37.773Z,97970.78
2023-10-09T11:00:12.203Z,97958.81
2023-10-09T11:02:39.186Z,97964.63
2023-10-09T11:05:06.369Z,97960.25
2023-10-09T11:07:32.902Z,97954.09
2023-10-09T11:09:59.624Z,97955.53
2023-10-09T11:12:28.151Z,97966.63
2023-10-09T11:14:54.518Z,97977.31
2023-10-09T11:17:21.341Z,97973.91
2023-10-09T11:19:48.368Z,97973.53
2023-10-09T11:22:15.022Z,97961.41
2023-10-09T11:24:41.968Z,97961.25
2023-10-09T11:27:09.229Z,97965.88
2023-10-09T11:29:36.811Z,97961.88
2023-10-09T11:32:08.008Z,97968.16
2023-10-09T11:34:35.008Z,97958.72
2023-10-09T11:37:14.192Z,97962.13
2023-10-09T11:39:40.732Z,97961.72
2023-10-09T11:42:15.588Z,97956.88
2023-10-09T11:44:43.268Z,97950.22
2023-10-09T11:47:09.704Z,97940.59
2023-10-09T11:49:36.163Z,97941.19
2023-10-09T11:52:06.952Z,97938.16
2023-10-09T11:54:34.013Z,97936.53
2023-10-09T11:57:00.850Z,97941.34
2023-10-09T11:59:27.444Z,97936.13
2023-10-09T12:01:54.617Z,97943.72
2023-10-09T12:04:21.244Z,97946.56
2023-10-09T12:06:47.676Z,97938.78
2023-10-09T12:09:14.047Z,97946.16
2023-10-09T12:11:54.067Z,97939.59
2023-10-09T12:14:26.852Z,97939.44
2023-10-09T12:16:53.289Z,97942.25
2023-10-09T12:19:19.698Z,97944.44
2023-10-09T12:21:46.081Z,97942.84
2023-10-09T12:24:12.454Z,97942.84
2023-10-09T12:26:39.323Z,97943.84
2023-10-09T12:29:06.333Z,97948.63
2023-10-09T12:31:32.752Z,97947.22
2023-10-09T12:33:59.184Z,97944.44
2023-10-09T12:36:25.647Z,97939.00
2023-10-09T12:38:52.351Z,97933.41
2023-10-09T12:41:18.797Z,97934.78
2023-10-09T12:43:45.224Z,97922.19
2023-10-09T12:46:11.718Z,97923.00
2023-10-09T12:48:38.145Z,97928.00
2023-10-09T12:51:04.564Z,97925.16
2023-10-09T12:53:32.678Z,97918.13
2023-10-09T12:55:59.296Z,97907.88
2023-10-09T12:58:25.839Z,97913.47
2023-10-09T13:00:52.232Z,97899.78
2023-10-09T13:03:19.807Z,97898.53
2023-10-09T13:05:51.545Z,97903.56
2023-10-09T13:08:17.937Z,97899.50
2023-10-09T13:10:44.375Z,97898.47
2023-10-09T13:13:10.814Z,97904.50
2023-10-09T13:15:37.176Z,97902.44
2023-10-09T13:18:03.809Z,97899.06
2023-10-09T13:20:30.189Z,97902.09
2023-10-09T13:22:56.593Z,97910.50
2023-10-09T13:25:34.571Z,97905.00
2023-10-09T13:28:02.226Z,97909.28
2023-10-09T13:30:28.619Z,97906.31
2023-10-09T13:32:55.081Z,97905.72
2023-10-09T13:35:21.517Z,97920.56
2023-10-09T13:37:47.923Z,97922.53
2023-10-09T13:40:14.848Z,97909.50
2023-10-09T13:42:41.213Z,97905.84
2023-10-09T13:45:08.188Z,97898.97
2023-10-09T13:47:34.655Z,97897.28
2023-10-09T13:50:01.180Z,97897.88
2023-10-09T13:52:27.607Z,97901.84
2023-10-09T13:54:53.982Z,97901.84
2023-10-09T13:57:20.375Z,97907.44
2023-10-09T13:59:46.735Z,97899.25
2023-10-09T14:02:13.149Z,97899.59
2023-10-09T14:04:39.719Z,97897.94
2023-10-09T14:07:06.192Z,97897.88
2023-10-09T14:09:32.816Z,97893.00
2023-10-09T14:12:01.147Z,97891.19
2023-10-09T14:14:27.547Z,97888.56
2023-10-09T14:16:53.923Z,97885.41
2023-10-09T14:19:20.309Z,97876.25
2023-10-09T14:21:46.673Z,97876.72
2023-10-09T14:24:13.552Z,97885.41
2023-10-09T14:26:41.000Z,97881.63
2023-10-09T14:29:07.436Z,97894.09
2023-10-09T14:31:33.976Z,97897.63
2023-10-09T14:34:00.440Z,97892.41
2023-10-09T14:36:26.797Z,97895.06
2023-10-09T14:38:53.202Z,97895.06
2023-10-09T14:41:21.088Z,97883.91
2023-10-09T14:43:47.471Z,97901.94
2023-10-09T14:46:14.885Z,97900.59
2023-10-09T14:48:41.307Z,97906.38
2023-10-09T14:51:08.127Z,97900.94
2023-10-09T14:53:34.672Z,97894.88
2023-10-09T14:56:01.569Z,97899.28
2023-10-09T14:58:28.844Z,97901.91
2023-10-09T15:00:55.473Z,97905.66
2023-10-09T15:03:22.659Z,97908.25
2023-10-09T15:05:52.275Z,97910.88
2023-10-09T15:08:18.700Z,97916.09
2023-10-09T15:10:46.741Z,97908.63
2023-10-09T15:13:13.120Z,97918.88
2023-10-09T15:15:42.487Z,97910.66
2023-10-09T15:18:08.978Z,97912.88
2023-10-09T15:20:36.171Z,97901.69
2023-10-09T15:23:02.628Z,97913.91
2023-10-09T15:25:29.022Z,97921.50
2023-10-09T15:27:55.385Z,97925.72
2023-10-09T15:30:21.881Z,97921.09
2023-10-09T15:32:48.286Z,97921.50
2023-10-09T15:35:15.157Z,97922.06
2023-10-09T15:37:42.912Z,97917.66
2023-10-09T15:40:09.676Z,97918.88
2023-10-09T15:42:37.790Z,97904.38
2023-10-09T15:45:04.630Z,97920.03
2023-10-09T15:47:31.069Z,97922.22
2023-10-09T15:49:57.469Z,97921.84
2023-10-09T15:52:23.877Z,97927.00
2023-10-09T15:54:50.222Z,97922.78
2023-10-09T15:57:16.594Z,97920.63
2023-10-09T15:59:42.939Z,97927.84
2023-10-09T16:02:09.357Z,97929.47
2023-10-09T16:04:35.813Z,97925.25
2023-10-09T16:07:02.327Z,97935.28
2023-10-09T16:09:28.688Z,97936.63
2023-10-09T16:11:55.265Z,97938.03
2023-10-09T16:14:21.712Z,97936.44
2023-10-09T16:16:48.099Z,97939.63
2023-10-09T16:19:14.514Z,97946.00
2023-10-09T16:21:40.950Z,97946.16
2023-10-09T16:24:08.384Z,97947.75
2023-10-09T16:26:34.728Z,97947.50
2023-10-09T16:29:01.120Z,97939.91
2023-10-09T16:31:28.995Z,97946.72
2023-10-09T16:33:55.390Z,97955.13
2023-10-09T16:36:21.739Z,97962.31
2023-10-09T16:38:48.173Z,97965.72
2023-10-09T16:41:14.589Z,97972.34
2023-10-09T16:43:41.062Z,97978.13
2023-10-09T16:46:07.703Z,97971.88
2023-10-09T16:48:34.169Z,97986.31
2023-10-09T16:51:06.191Z,97980.72
2023-10-09T16:53:34.527Z,97977.56
2023-10-09T16:56:02.024Z,97974.78
2023-10-09T16:58:28.471Z,97968.25
2023-10-09T17:00:57.149Z,97979.78
2023-10-09T17:03:23.799Z,97983.59
2023-10-09T17:05:52.161Z,97978.00
2023-10-09T17:08:18.596Z,97979.03
2023-10-09T17:10:45.000Z,97976.63
2023-10-09T17:13:12.130Z,97974.59
2023-10-09T17:15:38.780Z,97978.81
2023-10-09T17:18:05.386Z,97990.47
2023-10-09T17:20:31.942Z,97985.25
2023-10-09T17:22:58.663Z,97987.28
2023-10-09T17:25:25.311Z,97985.69
2023-10-09T17:27:51.646Z,97990.69
2023-10-09T17:30:18.063Z,97992.66
2023-10-09T17:32:47.968Z,97988.25
2023-10-09T17:35:14.963Z,97986.00
2023-10-09T17:37:42.577Z,97991.22
2023-10-09T17:40:10.084Z,97993.81
2023-10-09T17:42:36.908Z,97994.81
2023-10-09T17:45:04.111Z,97992.56
2023-10-09T17:47:30.572Z,97990.78
2023-10-09T17:49:57.027Z,98004.19
2023-10-09T17:52:23.488Z,97998.38
2023-10-09T17:54:49.928Z,97985.56
2023-10-09T17:57:16.310Z,97990.22
2023-10-09T17:59:42.664Z,97984.03
2023-10-09T18:02:09.096Z,97991.28
2023-10-09T18:04:35.553Z,97986.94
2023-10-09T18:07:03.441Z,97979.78
2023-10-09T18:09:29.829Z,97983.59
2023-10-09T18:11:56.213Z,97983.78
2023-10-09T18:14:23.498Z,97979.03
2023-10-09T18:16:50.532Z,97985.28
2023-10-09T18:19:17.189Z,97970.72
2023-10-09T18:21:43.540Z,97976.41
2023-10-09T18:24:10.832Z,97980.84
2023-10-09T18:26:37.190Z,97984.69
2023-10-09T18:29:05.261Z,97983.72
2023-10-09T18:31:33.401Z,97977.75
2023-10-09T18:33:59.781Z,97972.56
2023-10-09T18:36:26.133Z,97971.41
2023-10-09T18:38:53.130Z,97981.28
2023-10-09T18:41:20.089Z,97981.50
2023-10-09T18:43:46.618Z,97978.97
2023-10-09T18:46:13.381Z,97976.97
2023-10-09T18:48:39.934Z,97971.38
2023-10-09T18:51:06.307Z,97974.19
2023-10-09T18:53:32.672Z,97977.44
2023-10-09T18:55:59.293Z,97972.81
2023-10-09T18:58:25.672Z,97967.22
2023-10-09T19:00:52.065Z,97975.47
2023-10-09T19:03:18.914Z,97968.66
2023-10-09T19:05:45.486Z,97973.50
2023-10-09T19:08:12.885Z,97972.50
2023-10-09T19:10:39.991Z,97975.13
2023-10-09T19:13:06.345Z,97994.56
2023-10-09T19:15:32.720Z,97980.78
2023-10-09T19:17:59.469Z,97992.59
2023-10-09T19:20:26.083Z,97994.81
2023-10-09T19:22:52.602Z,97988.63
2023-10-09T19:25:19.042Z,97995.81
2023-10-09T19:27:47.862Z,97992.22
2023-10-09T19:30:14.450Z,97985.41
2023-10-09T19:32:40.870Z,97994.03
2023-10-09T19:35:08.097Z,98000.66
2023-10-09T19:37:34.539Z,98000.84
2023-10-09T19:40:00.901Z,98002.44
2023-10-09T19:42:27.247Z,98003.22
2023-10-09T19:44:53.602Z,98005.66
2023-10-09T19:47:19.960Z,98005.03
2023-10-09T19:49:47.467Z,98000.03
2023-10-09T19:52:13.892Z,98000.81
2023-10-09T19:54:40.257Z,98000.25
2023-10-09T19:57:06.602Z,97999.44
2023-10-09T19:59:33.006Z,98001.03
2023-10-09T20:01:59.466Z,97999.41
2023-10-09T20:04:26.005Z,98014.22
2023-10-09T20:06:52.362Z,98014.63
2023-10-09T20:09:18.928Z,98018.22
2023-10-09T20:11:45.280Z,98019.81
2023-10-09T20:14:11.680Z,98025.63
2023-10-09T20:16:38.181Z,98028.41
2023-10-09T20:19:04.664Z,98025.00
2023-10-09T20:21:31.040Z,98026.56
2023-10-09T20:23:57.378Z,98033.34
2023-10-09T20:26:23.745Z,98030.53
2023-10-09T20:28:50.257Z,98031.94
2023-10-09T20:31:16.727Z,98044.72
2023-10-09T20:33:43.442Z,98042.31
2023-10-09T20:36:11.825Z,98046.13
2023-10-09T20:38:38.536Z,98050.50
2023-10-09T20:41:05.671Z,98048.09
2023-10-09T20:43:32.074Z,98049.91
2023-10-09T20:45:58.445Z,98055.50
2023-10-09T20:48:24.812Z,98056.72
2023-10-09T20:50:51.174Z,98063.75
2023-10-09T20:53:17.618Z,98065.31
2023-10-09T20:55:51.268Z,98075.50
2023-10-09T20:58:18.309Z,98058.53
2023-10-09T21:00:44.670Z,98066.13
2023-10-09T21:03:11.121Z,98071.34
2023-10-09T21:05:37.520Z,98077.50
2023-10-09T21:08:04.142Z,98075.09
2023-10-09T21:10:30.568Z,98073.88
2023-10-09T21:12:56.960Z,98070.91
2023-10-09T21:15:24.252Z,98067.72
2023-10-09T21:17:50.738Z,98069.53
2023-10-09T21:20:17.389Z,98070.94
2023-10-09T21:22:44.959Z,98063.13
2023-10-09T21:25:11.469Z,98071.38
2023-10-09T21:27:38.113Z,98064.75
2023-10-09T21:30:05.045Z,98067.97
2023-10-09T21:32:31.939Z,98068.34
2023-10-09T21:34:58.545Z,98072.72
2023-10-09T21:37:24.939Z,98075.19
2023-10-09T21:39:51.289Z,98073.78
2023-10-09T21:42:17.627Z,98075.00
2023-10-09T21:44:43.982Z,98069.19
2023-10-09T21:47:10.400Z,98075.19
2023-10-09T21:49:36.767Z,98072.63
2023-10-09T21:52:03.104Z,98072.22
2023-10-09T21:54:29.462Z,98073.00
2023-10-09T21:56:55.859Z,98074.81
2023-10-09T21:59:22.301Z,98086.81
2023-10-09T22:01:51.643Z,98078.63
2023-10-09T22:04:18.224Z,98079.44
2023-10-09T22:06:44.675Z,98079.81
2023-10-09T22:09:11.058Z,98079.81
2023-10-09T22:11:37.403Z,98082.81
2023-10-09T22:14:03.783Z,98082.84
2023-10-09T22:16:30.203Z,98081.44
2023-10-09T22:19:13.087Z,98085.63
2023-10-09T22:21:42.080Z,98073.81
2023-10-09T22:24:08.564Z,98070.84
2023-10-09T22:26:34.926Z,98074.25
2023-10-09T22:29:01.333Z,98081.03
2023-10-09T22:31:27.892Z,98083.44
2023-10-09T22:33:54.267Z,98077.25
2023-10-09T22:36:21.222Z,98084.03
2023-10-09T22:38:47.559Z,98082.44
2023-10-09T22:41:13.976Z,98082.22
2023-10-09T22:43:40.341Z,98086.25
2023-10-09T22:46:08.591Z,98090.22
2023-10-09T22:48:35.099Z,98096.84
2023-10-09T22:51:01.463Z,98087.25
2023-10-09T22:53:27.874Z,98097.41
2023-10-09T22:55:54.275Z,98091.03
2023-10-09T22:58:22.312Z,98091.03
2023-10-09T23:00:48.705Z,98091.03
2023-10-09T23:03:16.686Z,98094.25
2023-10-09T23:05:43.149Z,98091.41
2023-10-09T23:08:09.591Z,98083.22
2023-10-09T23:10:35.978Z,98088.63
2023-10-09T23:13:02.353Z,98086.44
2023-10-09T23:15:28.851Z,98084.03
2023-10-09T23:17:55.288Z,98081.44
2023-10-09T23:20:21.765Z,98077.41
2023-10-09T23:22:48.179Z,98080.41
2023-10-09T23:25:15.222Z,98082.59
2023-10-09T23:27:41.607Z,98080.00
2023-10-09T23:30:09.752Z,98085.22
2023-10-09T23:32:37.129Z,98082.38
2023-10-09T23:35:04.371Z,98089.38
2023-10-09T23:37:30.742Z,98084.78
2023-10-09T23:39:57.083Z,98082.19
2023-10-09T23:42:23.441Z,98093.22
2023-10-09T23:44:49.791Z,98096.81
2023-10-09T23:47:16.197Z,98096.00
2023-10-09T23:49:42.900Z,98097.63
2023-10-09T23:52:09.254Z,98105.19
2023-10-09T23:54:35.614Z,98093.97
2023-10-09T23:57:01.951Z,98102.03
2023-10-09T23:59:28.403Z,98093.41
